Terminal Aerodrome Forecast
Issued by NWS Portland, OR

Home | Current Version | Previous Version | Text Only | Print | Product List | Glossary On
Versions: 1 2 3 4 5 6 7 8 9 10 11 12 13 14 15 16 17 18
000
FTUS46 KPQR 051319 AAA
TAFEUG
TAF AMD
KEUG 051319Z 0513/0612 19006KT P6SM FEW006
     FM051500 20009KT P6SM -SHRA SCT007 BKN025
     FM051800 21007KT P6SM -RA SCT015 BKN025
     FM052200 21005KT P6SM -SHRA SCT025 BKN050
     FM060600 18003KT 3SM BR VCSH SCT015 BKN025=

USA.gov is the U.S. government's official web portal to all federal, state and local government web resources and services.